Great Hebei — VRFU6 — position and weather

sailwx.info

Track history (hours):
 
Tides and Currents Weather Stations Pressure Air Temp Water Temp Dewpoint Dewpoint Depression Visibility Wind Speed Wind Dir Waves Ship Positions

Great Hebei

Last reported at 2017-Mar-17 02:32 UTC. Time now 2017-Mar-22 22:03 UTC.
Position N 01°15' E 104°03'.

Length 295 m; draft 18.2 m.

Type: Cargo ship. MMSI: 477617100.

Date/timePositionNaut miles runAvg speedWind from/ knotsBaromVisibWave heightAir tempDewpointWater temp
2017-Mar-17 02:32N 01°15' E 104°03'9 9.3
2017-Mar-17 01:33N 01°13' E 103°54'7 7.3
2017-Mar-17 00:33N 01°10' E 103°48'9 9.0
2017-Mar-16 23:33N 01°04' E 103°41'9 8.5
2017-Mar-16 22:33N 01°07' E 103°33'9 9.3
2017-Mar-16 21:33N 01°11' E 103°24'  
2017-Mar-08 07:30N 01°18' E 103°21'1010.7
2017-Mar-08 06:33N 01°13' E 103°30'9 9.3
2017-Mar-08 05:33N 01°11' E 103°39'7 7.5
2017-Mar-08 04:33N 01°10' E 103°47'8 7.7
2017-Mar-08 03:33N 01°13' E 103°54'34 8.3
2017-Mar-07 23:31N 01°24' E 104°26'  
Track history (hours):
 
Tides and Currents Weather Stations Pressure Air Temp Water Temp Dewpoint Dewpoint Depression Visibility Wind Speed Wind Dir Waves Ship Positions

Great Hebei

Last reported at 2017-Mar-17 02:32 UTC. Time now 2017-Mar-22 22:03 UTC.
Position N 01°15' E 104°03'.

Length 295 m; draft 18.2 m.

Type: Cargo ship. MMSI: 477617100.

Date/timePositionNaut miles runAvg speedWind from/ knotsBaromVisibWave heightAir tempDewpointWater temp
2017-Mar-17 02:32N 01°15' E 104°03'9 9.3
2017-Mar-17 01:33N 01°13' E 103°54'7 7.3
2017-Mar-17 00:33N 01°10' E 103°48'9 9.0
2017-Mar-16 23:33N 01°04' E 103°41'9 8.5
2017-Mar-16 22:33N 01°07' E 103°33'9 9.3
2017-Mar-16 21:33N 01°11' E 103°24'  
2017-Mar-08 07:30N 01°18' E 103°21'1010.7
2017-Mar-08 06:33N 01°13' E 103°30'9 9.3
2017-Mar-08 05:33N 01°11' E 103°39'7 7.5
2017-Mar-08 04:33N 01°10' E 103°47'8 7.7
2017-Mar-08 03:33N 01°13' E 103°54'34 8.3
2017-Mar-07 23:31N 01°24' E 104°26'  

Dump ship's entire track history